createdAt,value
2022-10-21T00:01:32.342Z,2.93
2022-10-21T00:04:03.039Z,2.90
2022-10-21T00:06:33.195Z,2.88
2022-10-21T00:09:03.644Z,2.88
2022-10-21T00:11:33.578Z,2.86
2022-10-21T00:14:02.242Z,2.83
2022-10-21T00:16:30.960Z,2.83
2022-10-21T00:18:59.433Z,2.82
2022-10-21T00:21:28.110Z,2.82
2022-10-21T00:23:58.688Z,2.82
2022-10-21T00:26:28.445Z,2.82
2022-10-21T00:28:58.753Z,2.81
2022-10-21T00:31:28.258Z,2.81
2022-10-21T00:33:57.139Z,2.82
2022-10-21T00:36:25.735Z,2.83
2022-10-21T00:38:54.450Z,2.83
2022-10-21T00:41:25.424Z,2.84
2022-10-21T00:44:06.598Z,2.83
2022-10-21T00:46:36.627Z,2.83
2022-10-21T00:49:07.257Z,2.84
2022-10-21T00:51:37.014Z,2.85
2022-10-21T00:54:06.756Z,2.85
2022-10-21T00:56:43.004Z,2.85
2022-10-21T00:59:12.358Z,2.86
2022-10-21T01:01:43.166Z,2.87
2022-10-21T01:04:11.938Z,2.93
2022-10-21T01:06:41.591Z,2.95
2022-10-21T01:09:12.107Z,2.98
2022-10-21T01:11:43.276Z,3.01
2022-10-21T01:14:21.473Z,3.05
2022-10-21T01:17:26.469Z,3.10
2022-10-21T01:20:17.661Z,3.17
2022-10-21T01:22:53.430Z,3.20
2022-10-21T01:25:43.100Z,3.20
2022-10-21T01:28:30.296Z,3.19
2022-10-21T01:31:02.361Z,3.21
2022-10-21T01:33:39.827Z,3.24
2022-10-21T01:36:13.938Z,3.28
2022-10-21T01:38:47.277Z,3.28
2022-10-21T01:41:25.692Z,3.29
2022-10-21T01:43:58.704Z,3.28
2022-10-21T01:46:29.238Z,3.28
2022-10-21T01:49:18.724Z,3.24
2022-10-21T01:51:48.130Z,3.26
2022-10-21T01:54:21.928Z,3.27
2022-10-21T01:57:15.079Z,3.28
2022-10-21T01:59:45.343Z,3.28
2022-10-21T02:02:16.323Z,3.28
2022-10-21T02:04:46.806Z,3.29
2022-10-21T02:07:15.403Z,3.31
2022-10-21T02:09:44.022Z,3.32
2022-10-21T02:12:15.248Z,3.31
2022-10-21T02:14:48.780Z,3.30
2022-10-21T02:17:21.138Z,3.28
2022-10-21T02:19:49.699Z,3.29
2022-10-21T02:22:21.067Z,3.28
2022-10-21T02:25:02.325Z,3.25
2022-10-21T02:27:30.999Z,3.23
2022-10-21T02:30:01.242Z,3.21
2022-10-21T02:32:38.887Z,3.17
2022-10-21T02:35:08.430Z,3.12
2022-10-21T02:37:51.679Z,3.07
2022-10-21T02:40:33.863Z,3.02
2022-10-21T02:43:21.565Z,2.99
2022-10-21T02:45:54.834Z,2.95
2022-10-21T02:48:26.370Z,2.91
2022-10-21T02:50:55.029Z,2.87
2022-10-21T02:53:24.829Z,2.85
2022-10-21T02:56:22.357Z,2.85
2022-10-21T02:58:53.181Z,2.85
2022-10-21T03:01:23.215Z,2.85
2022-10-21T03:03:52.576Z,2.82
2022-10-21T03:06:22.826Z,2.82
2022-10-21T03:08:51.800Z,2.82
2022-10-21T03:11:20.963Z,2.80
2022-10-21T03:13:51.116Z,2.79
2022-10-21T03:16:20.654Z,2.77
2022-10-21T03:18:51.144Z,2.75
2022-10-21T03:21:19.869Z,2.77
2022-10-21T03:23:49.693Z,2.80
2022-10-21T03:26:18.235Z,2.79
2022-10-21T03:28:49.452Z,2.78
2022-10-21T03:31:18.862Z,2.76
2022-10-21T03:33:47.515Z,2.73
2022-10-21T03:36:18.013Z,2.71
2022-10-21T03:38:47.188Z,2.70
2022-10-21T03:41:17.469Z,2.67
2022-10-21T03:43:47.476Z,2.66
2022-10-21T03:46:17.536Z,2.66
2022-10-21T03:48:47.255Z,2.67
2022-10-21T03:51:16.136Z,2.70
2022-10-21T03:53:45.195Z,2.70
2022-10-21T03:56:41.085Z,2.69
2022-10-21T03:59:09.719Z,2.70
2022-10-21T04:01:39.770Z,2.73
2022-10-21T04:04:08.481Z,2.76
2022-10-21T04:06:36.935Z,2.77
2022-10-21T04:09:08.198Z,2.77
2022-10-21T04:11:37.025Z,2.79
2022-10-21T04:14:10.258Z,2.81
2022-10-21T04:16:43.927Z,2.82
2022-10-21T04:19:20.218Z,2.81
2022-10-21T04:21:58.000Z,2.79
2022-10-21T04:24:33.465Z,2.82
2022-10-21T04:27:27.466Z,2.84
2022-10-21T04:30:02.878Z,2.86
2022-10-21T04:32:38.728Z,2.89
2022-10-21T04:35:20.463Z,2.96
2022-10-21T04:37:52.695Z,2.99
2022-10-21T04:40:21.648Z,2.99
2022-10-21T04:42:50.811Z,2.99
2022-10-21T04:48:35.807Z,2.98
2022-10-21T04:51:05.756Z,2.96
2022-10-21T04:53:36.889Z,2.96
2022-10-21T04:56:33.323Z,2.98
2022-10-21T04:59:03.534Z,2.99
2022-10-21T05:01:33.005Z,3.00
2022-10-21T05:04:18.743Z,2.99
2022-10-21T05:06:49.657Z,3.00
2022-10-21T05:09:24.946Z,3.01
2022-10-21T05:11:55.406Z,3.00
2022-10-21T05:14:24.023Z,3.00
2022-10-21T05:16:55.934Z,2.97
2022-10-21T05:19:28.971Z,2.95
2022-10-21T05:22:01.418Z,2.95
2022-10-21T05:24:31.556Z,2.95
2022-10-21T05:27:00.977Z,2.93
2022-10-21T05:29:29.562Z,2.92
2022-10-21T05:31:58.205Z,2.93
2022-10-21T05:34:26.909Z,2.94
2022-10-21T05:36:56.065Z,2.94
2022-10-21T05:39:27.833Z,2.94
2022-10-21T05:41:57.539Z,2.96
2022-10-21T05:44:26.370Z,2.98
2022-10-21T05:47:02.001Z,3.01
2022-10-21T05:49:33.050Z,3.03
2022-10-21T05:52:03.120Z,3.04
2022-10-21T05:54:32.660Z,3.06
2022-10-21T05:57:29.371Z,3.09
2022-10-21T06:22:37.112Z,3.54
2022-10-21T06:25:12.018Z,3.59
2022-10-21T06:46:31.896Z,4.17
2022-10-21T06:52:16.118Z,4.29
2022-10-21T06:58:06.273Z,4.35
2022-10-21T07:00:48.032Z,4.38
2022-10-21T07:03:22.210Z,4.41
2022-10-21T07:05:59.863Z,4.46
2022-10-21T07:12:33.316Z,4.48
2022-10-21T07:15:06.001Z,4.52
2022-10-21T07:18:01.336Z,4.57
2022-10-21T07:27:08.580Z,4.75
2022-10-21T07:29:44.171Z,4.83
2022-10-21T07:32:33.211Z,4.93
2022-10-21T07:35:09.572Z,5.00
2022-10-21T07:37:53.224Z,5.04
2022-10-21T07:40:50.070Z,5.11
2022-10-21T07:46:51.797Z,5.14
2022-10-21T07:49:27.873Z,5.17
2022-10-21T07:52:03.553Z,5.18
2022-10-21T08:10:54.914Z,5.82
2022-10-21T08:13:25.282Z,5.77
2022-10-21T08:15:57.756Z,5.69
2022-10-21T08:18:30.417Z,5.75
2022-10-21T08:21:04.087Z,5.85
2022-10-21T08:23:36.759Z,6.01
2022-10-21T08:26:12.551Z,6.25
2022-10-21T08:28:44.362Z,6.68
2022-10-21T08:31:20.602Z,7.02
2022-10-21T08:33:51.054Z,7.27
2022-10-21T08:36:25.732Z,7.36
2022-10-21T08:38:55.759Z,7.44
2022-10-21T08:41:31.475Z,7.48
2022-10-21T08:44:11.417Z,7.58
2022-10-21T08:46:51.995Z,7.67
2022-10-21T08:49:28.599Z,7.84
2022-10-21T08:52:06.542Z,8.32
2022-10-21T08:54:59.969Z,8.70
2022-10-21T08:57:35.643Z,8.94
2022-10-21T09:00:56.584Z,9.01
2022-10-21T09:03:44.452Z,9.43
2022-10-21T09:07:01.122Z,11.50
2022-10-21T09:09:53.480Z,12.06
2022-10-21T09:13:03.576Z,11.60
2022-10-21T09:15:53.141Z,12.01
2022-10-21T09:18:58.636Z,12.59
2022-10-21T09:21:48.855Z,14.05
2022-10-21T09:24:57.150Z,14.01
2022-10-21T09:27:32.296Z,12.88
2022-10-21T09:30:21.577Z,12.28
2022-10-21T09:32:56.737Z,12.30
2022-10-21T09:35:43.279Z,12.42
2022-10-21T09:38:16.227Z,13.21
2022-10-21T09:40:48.742Z,13.20
2022-10-21T09:43:26.718Z,12.84
2022-10-21T09:45:57.005Z,12.18
2022-10-21T09:48:55.040Z,11.60
2022-10-21T09:51:33.044Z,11.11
2022-10-21T09:54:14.007Z,10.71
2022-10-21T09:56:53.054Z,10.42
2022-10-21T09:59:32.949Z,10.11
2022-10-21T10:02:19.469Z,9.90
2022-10-21T10:04:54.226Z,9.78
2022-10-21T10:07:32.075Z,9.66
2022-10-21T10:10:04.260Z,9.47
2022-10-21T10:12:33.597Z,9.36
2022-10-21T10:15:29.373Z,9.31
2022-10-21T10:18:01.546Z,9.22
2022-10-21T10:20:31.190Z,9.19
2022-10-21T10:23:01.663Z,9.20
2022-10-21T10:25:35.986Z,9.24
2022-10-21T10:28:12.356Z,9.27
2022-10-21T10:30:41.608Z,9.43
2022-10-21T10:33:13.877Z,9.61
2022-10-21T10:35:56.558Z,9.70
2022-10-21T10:38:33.079Z,9.78
2022-10-21T10:41:11.989Z,9.78
2022-10-21T10:43:51.800Z,9.76
2022-10-21T10:46:30.002Z,9.70
2022-10-21T10:49:07.196Z,9.63
2022-10-21T10:51:39.035Z,9.52
2022-10-21T10:54:07.797Z,9.43
2022-10-21T10:56:54.120Z,9.34
2022-10-21T10:59:23.499Z,9.30
2022-10-21T11:02:23.049Z,9.30
2022-10-21T11:05:23.987Z,9.26
2022-10-21T11:12:38.727Z,9.03
2022-10-21T11:15:14.251Z,9.00
2022-10-21T11:18:00.469Z,8.97
2022-10-21T11:20:48.664Z,8.93
2022-10-21T11:23:35.676Z,8.94
2022-10-21T11:26:21.439Z,8.87
2022-10-21T11:29:06.657Z,8.72
2022-10-21T11:32:10.217Z,8.67
2022-10-21T11:35:12.710Z,8.68
2022-10-21T11:37:56.336Z,8.64
2022-10-21T11:40:39.862Z,8.60
2022-10-21T11:43:31.163Z,8.52
2022-10-21T11:46:24.167Z,8.45
2022-10-21T11:48:59.764Z,8.35
2022-10-21T11:51:54.221Z,8.27
2022-10-21T11:54:41.556Z,8.26
2022-10-21T11:57:48.938Z,8.25
2022-10-21T12:00:25.734Z,8.29
2022-10-21T12:03:15.298Z,8.29
2022-10-21T12:06:04.182Z,8.29
2022-10-21T12:08:50.788Z,8.26
2022-10-21T12:11:26.883Z,8.27
2022-10-21T12:14:02.239Z,8.25
2022-10-21T12:16:35.275Z,8.25
2022-10-21T12:19:08.024Z,8.28
2022-10-21T12:21:40.451Z,8.30
2022-10-21T12:24:27.856Z,8.27
2022-10-21T12:26:58.100Z,8.20
2022-10-21T12:29:55.070Z,8.20
2022-10-21T12:32:40.076Z,8.25
2022-10-21T12:35:36.131Z,8.32
2022-10-21T12:38:21.073Z,8.35
2022-10-21T12:40:52.337Z,8.36
2022-10-21T12:43:29.191Z,8.38
2022-10-21T12:46:08.601Z,8.40
2022-10-21T12:48:39.832Z,8.42
2022-10-21T12:51:29.645Z,8.42
2022-10-21T12:54:04.158Z,8.44
2022-10-21T12:56:32.772Z,8.46
2022-10-21T12:59:07.456Z,8.44
2022-10-21T13:01:41.234Z,8.44
2022-10-21T13:04:34.932Z,8.40
2022-10-21T13:07:26.649Z,8.39
2022-10-21T13:09:55.537Z,8.40
2022-10-21T13:12:28.409Z,8.41
2022-10-21T13:15:22.920Z,8.43
2022-10-21T13:17:54.795Z,8.44
2022-10-21T13:20:26.097Z,8.47
2022-10-21T13:23:15.665Z,8.49
2022-10-21T13:25:47.433Z,8.52
2022-10-21T13:28:16.090Z,8.57
2022-10-21T13:30:51.846Z,8.63
2022-10-21T13:33:27.890Z,8.67
2022-10-21T13:36:10.137Z,8.70
2022-10-21T13:38:53.566Z,8.73
2022-10-21T13:41:46.723Z,8.79
2022-10-21T13:44:33.233Z,8.86
2022-10-21T13:47:31.524Z,8.92
2022-10-21T13:50:19.621Z,8.95
2022-10-21T13:52:54.963Z,8.97
2022-10-21T13:55:27.279Z,8.98
2022-10-21T13:57:57.386Z,8.97
2022-10-21T14:00:34.267Z,8.98
2022-10-21T14:03:07.316Z,8.98
2022-10-21T14:05:48.841Z,8.98
2022-10-21T14:08:23.205Z,8.98
2022-10-21T14:10:53.958Z,9.00
2022-10-21T14:13:30.777Z,9.01
2022-10-21T14:16:00.732Z,9.04
2022-10-21T14:18:37.504Z,9.08
2022-10-21T14:21:18.101Z,9.10
2022-10-21T14:23:52.756Z,9.11
2022-10-21T14:26:31.017Z,9.13
2022-10-21T14:29:03.341Z,9.14
2022-10-21T14:31:32.745Z,9.14
2022-10-21T14:34:02.176Z,9.12
2022-10-21T14:36:32.462Z,9.11
2022-10-21T14:39:22.169Z,9.12
2022-10-21T14:41:57.789Z,9.11
2022-10-21T14:44:31.348Z,9.09
2022-10-21T14:47:06.113Z,9.05
2022-10-21T14:49:50.743Z,9.03
2022-10-21T14:52:27.226Z,9.00
2022-10-21T14:55:02.653Z,8.97
2022-10-21T14:57:32.565Z,8.94
2022-10-21T15:00:03.540Z,8.90
2022-10-21T15:02:38.545Z,8.87
2022-10-21T15:05:48.988Z,8.84
2022-10-21T15:08:23.613Z,8.81
2022-10-21T15:11:06.433Z,8.80
2022-10-21T15:14:21.039Z,8.77
2022-10-21T15:16:56.137Z,8.74
2022-10-21T15:19:30.404Z,8.72
2022-10-21T15:22:12.035Z,8.71
2022-10-21T15:24:48.051Z,8.69
2022-10-21T15:27:44.000Z,8.66
2022-10-21T15:30:21.799Z,8.65
2022-10-21T15:32:52.150Z,8.65
2022-10-21T15:35:26.764Z,8.65
2022-10-21T15:37:57.319Z,8.63
2022-10-21T15:40:36.004Z,8.61
2022-10-21T15:43:11.672Z,8.61
2022-10-21T15:45:41.887Z,8.62
2022-10-21T15:48:13.939Z,8.62
2022-10-21T15:50:48.167Z,8.60
2022-10-21T15:53:21.274Z,8.58
2022-10-21T15:55:57.468Z,8.58
2022-10-21T15:58:29.600Z,8.57
2022-10-21T16:05:45.144Z,8.54
2022-10-21T16:08:24.494Z,8.52
2022-10-21T16:10:53.571Z,8.50
2022-10-21T16:13:25.535Z,8.50
2022-10-21T16:15:59.117Z,8.49
2022-10-21T16:18:30.828Z,8.48
2022-10-21T16:21:05.944Z,8.47
2022-10-21T16:23:37.017Z,8.47
2022-10-21T16:26:27.568Z,8.48
2022-10-21T16:29:00.047Z,8.49
2022-10-21T16:31:31.386Z,8.49
2022-10-21T16:34:01.956Z,8.49
2022-10-21T16:36:40.579Z,8.50
2022-10-21T16:39:24.989Z,8.50
2022-10-21T16:41:56.662Z,8.49
2022-10-21T16:44:32.667Z,8.49
2022-10-21T16:47:15.305Z,8.49
2022-10-21T16:49:53.501Z,8.48
2022-10-21T16:52:27.134Z,8.48
2022-10-21T16:55:02.363Z,8.46
2022-10-21T16:57:32.259Z,8.46
2022-10-21T17:00:29.135Z,8.46
2022-10-21T17:03:05.353Z,8.44
2022-10-21T17:05:42.977Z,8.44
2022-10-21T17:08:16.702Z,8.42
2022-10-21T17:10:52.766Z,8.39
2022-10-21T17:13:25.397Z,8.37
2022-10-21T17:15:58.578Z,8.35
2022-10-21T17:18:29.223Z,8.36
2022-10-21T17:21:01.149Z,8.36
2022-10-21T17:23:32.298Z,8.35
2022-10-21T17:26:03.089Z,8.33
2022-10-21T17:28:34.306Z,8.32
2022-10-21T17:31:08.093Z,8.31
2022-10-21T17:33:39.756Z,8.30
2022-10-21T17:36:11.506Z,8.28
2022-10-21T17:38:42.605Z,8.25
2022-10-21T17:41:16.362Z,8.24
2022-10-21T17:43:49.285Z,8.22
2022-10-21T17:46:26.429Z,8.19
2022-10-21T17:48:58.392Z,8.17
2022-10-21T17:51:28.053Z,8.14
2022-10-21T17:53:58.509Z,8.11
2022-10-21T17:56:32.894Z,8.08
2022-10-21T17:59:05.012Z,8.06
2022-10-21T18:06:10.853Z,7.96
2022-10-21T18:08:43.856Z,7.93
2022-10-21T18:11:18.910Z,7.92
2022-10-21T18:13:53.594Z,7.90
2022-10-21T18:16:27.042Z,7.89
2022-10-21T18:19:02.635Z,7.88
2022-10-21T18:21:33.740Z,7.86
2022-10-21T18:24:09.989Z,7.84
2022-10-21T18:26:47.266Z,7.83
2022-10-21T18:29:19.952Z,7.80
2022-10-21T18:31:53.829Z,7.82
2022-10-21T18:34:24.495Z,7.82
2022-10-21T18:36:56.740Z,7.82
2022-10-21T18:39:30.279Z,7.82
2022-10-21T18:42:04.796Z,7.83
2022-10-21T18:44:36.186Z,7.84
2022-10-21T18:47:10.874Z,7.86
2022-10-21T18:49:41.701Z,7.87
2022-10-21T18:52:12.942Z,7.87
2022-10-21T18:54:45.058Z,7.87
2022-10-21T18:57:18.680Z,7.90
2022-10-21T18:59:53.409Z,7.91
2022-10-21T19:02:25.521Z,7.93
2022-10-21T19:15:03.592Z,7.97
2022-10-21T19:17:36.395Z,7.95
2022-10-21T19:20:09.529Z,7.94
2022-10-21T19:22:41.943Z,7.95
2022-10-21T19:25:12.491Z,7.96
2022-10-21T19:27:45.762Z,7.97
2022-10-21T19:30:15.239Z,7.96
2022-10-21T19:32:45.236Z,7.95
2022-10-21T19:35:17.148Z,7.96
2022-10-21T19:37:49.111Z,7.95
2022-10-21T19:40:19.396Z,7.93
2022-10-21T19:42:50.112Z,7.91
2022-10-21T19:45:20.149Z,7.90
2022-10-21T19:47:52.343Z,7.89
2022-10-21T19:50:22.948Z,7.87
2022-10-21T19:52:53.742Z,7.85
2022-10-21T19:55:30.213Z,7.82
2022-10-21T19:58:11.949Z,7.78
2022-10-21T20:05:25.676Z,7.68
2022-10-21T20:08:30.801Z,7.64
2022-10-21T20:11:08.040Z,7.59
2022-10-21T20:13:44.579Z,7.57
2022-10-21T20:16:29.393Z,7.56
2022-10-21T20:19:02.503Z,7.56
2022-10-21T20:21:34.359Z,7.54
2022-10-21T20:24:04.158Z,7.54
2022-10-21T20:26:35.700Z,7.55
2022-10-21T20:29:05.459Z,7.56
2022-10-21T20:31:36.326Z,7.57
2022-10-21T20:34:06.996Z,7.57
2022-10-21T20:36:40.618Z,7.57
2022-10-21T20:39:11.349Z,7.58
2022-10-21T20:41:42.178Z,7.57
2022-10-21T20:44:16.483Z,7.58
2022-10-21T20:46:47.321Z,7.57
2022-10-21T20:49:17.655Z,7.56
2022-10-21T20:51:47.066Z,7.56
2022-10-21T20:54:19.396Z,7.57
2022-10-21T20:56:50.047Z,7.59
2022-10-21T20:59:20.325Z,7.58
2022-10-21T21:06:21.766Z,7.56
2022-10-21T21:09:08.610Z,7.57
2022-10-21T21:11:42.779Z,7.58
2022-10-21T21:14:11.615Z,7.56
2022-10-21T21:16:42.269Z,7.55
2022-10-21T21:19:14.112Z,7.57
2022-10-21T21:21:43.788Z,7.58
2022-10-21T21:24:12.927Z,7.59
2022-10-21T21:26:43.228Z,7.60
2022-10-21T21:29:15.555Z,7.62
2022-10-21T21:31:46.307Z,7.62
2022-10-21T21:34:15.434Z,7.63
2022-10-21T21:36:46.132Z,7.63
2022-10-21T21:39:17.142Z,7.63
2022-10-21T21:41:49.432Z,7.63
2022-10-21T21:44:18.438Z,7.61
2022-10-21T21:46:48.743Z,7.61
2022-10-21T21:49:17.601Z,7.61
2022-10-21T21:51:47.037Z,7.61
2022-10-21T21:54:17.230Z,7.62
2022-10-21T21:56:48.454Z,7.64
2022-10-21T21:59:17.187Z,7.64
2022-10-21T22:08:58.756Z,7.62
2022-10-21T22:11:30.705Z,7.63
2022-10-21T22:14:00.222Z,7.63
2022-10-21T22:16:32.296Z,7.64
2022-10-21T22:19:02.387Z,7.65
2022-10-21T22:21:31.745Z,7.66
2022-10-21T22:24:02.628Z,7.66
2022-10-21T22:26:31.559Z,7.65
2022-10-21T22:29:00.276Z,7.63
2022-10-21T22:31:31.065Z,7.61
2022-10-21T22:34:02.781Z,7.62
2022-10-21T22:36:34.612Z,7.60
2022-10-21T22:39:05.030Z,7.58
2022-10-21T22:41:33.677Z,7.58
2022-10-21T22:44:02.340Z,7.58
2022-10-21T22:46:34.877Z,7.62
2022-10-21T22:49:06.213Z,7.67
2022-10-21T22:51:37.264Z,7.71
2022-10-21T22:54:15.184Z,7.74
2022-10-21T22:56:53.269Z,7.78
2022-10-21T22:59:23.503Z,7.80
2022-10-21T23:01:54.019Z,7.84
2022-10-21T23:04:24.723Z,7.86
2022-10-21T23:06:55.161Z,7.87
2022-10-21T23:09:25.709Z,7.87
2022-10-21T23:11:55.402Z,7.90
2022-10-21T23:14:24.643Z,7.91
2022-10-21T23:16:54.360Z,7.95
2022-10-21T23:19:23.231Z,7.98
2022-10-21T23:21:54.747Z,8.00
2022-10-21T23:24:24.090Z,7.99
2022-10-21T23:26:56.452Z,7.97
2022-10-21T23:29:28.938Z,7.99
2022-10-21T23:31:57.748Z,7.97
2022-10-21T23:34:28.309Z,7.96
2022-10-21T23:36:58.679Z,7.93
2022-10-21T23:39:27.514Z,7.90
2022-10-21T23:41:59.592Z,7.89
2022-10-21T23:44:30.324Z,7.86
2022-10-21T23:47:00.230Z,7.86
2022-10-21T23:49:28.914Z,7.86
2022-10-21T23:52:00.313Z,7.85
2022-10-21T23:54:31.619Z,7.85
2022-10-21T23:57:01.991Z,7.85
2022-10-21T23:59:31.886Z,7.83
